sensor_id;sensor_type;location;lat;lon;timestamp;temperature;humidity
6270;DHT22;3168;51.684;6.954;2023-04-08T00:00:05;5.00;81.80
6270;DHT22;3168;51.684;6.954;2023-04-08T00:02:32;5.30;91.10
6270;DHT22;3168;51.684;6.954;2023-04-08T00:04:58;5.30;91.00
6270;DHT22;3168;51.684;6.954;2023-04-08T00:07:24;5.40;90.70
6270;DHT22;3168;51.684;6.954;2023-04-08T00:09:50;5.50;88.60
6270;DHT22;3168;51.684;6.954;2023-04-08T00:12:15;5.40;85.50
6270;DHT22;3168;51.684;6.954;2023-04-08T00:14:41;5.40;84.20
6270;DHT22;3168;51.684;6.954;2023-04-08T00:17:07;5.30;80.10
6270;DHT22;3168;51.684;6.954;2023-04-08T00:19:33;5.10;78.50
6270;DHT22;3168;51.684;6.954;2023-04-08T00:21:59;5.00;75.50
6270;DHT22;3168;51.684;6.954;2023-04-08T00:24:24;4.90;75.10
6270;DHT22;3168;51.684;6.954;2023-04-08T00:26:50;4.80;76.60
6270;DHT22;3168;51.684;6.954;2023-04-08T00:29:17;4.80;79.60
6270;DHT22;3168;51.684;6.954;2023-04-08T00:31:43;4.80;79.50
6270;DHT22;3168;51.684;6.954;2023-04-08T00:34:08;4.90;80.70
6270;DHT22;3168;51.684;6.954;2023-04-08T00:36:34;5.00;82.00
6270;DHT22;3168;51.684;6.954;2023-04-08T00:39:00;4.90;76.80
6270;DHT22;3168;51.684;6.954;2023-04-08T00:41:26;4.70;74.50
6270;DHT22;3168;51.684;6.954;2023-04-08T00:43:52;4.60;74.70
6270;DHT22;3168;51.684;6.954;2023-04-08T00:46:18;4.30;75.00
6270;DHT22;3168;51.684;6.954;2023-04-08T00:48:44;4.30;74.90
6270;DHT22;3168;51.684;6.954;2023-04-08T00:51:10;4.30;79.30
6270;DHT22;3168;51.684;6.954;2023-04-08T00:53:36;4.30;82.30
6270;DHT22;3168;51.684;6.954;2023-04-08T00:56:02;4.30;83.50
6270;DHT22;3168;51.684;6.954;2023-04-08T00:58:28;4.30;85.20
6270;DHT22;3168;51.684;6.954;2023-04-08T01:00:58;4.40;87.90
6270;DHT22;3168;51.684;6.954;2023-04-08T01:06:30;4.30;87.40
6270;DHT22;3168;51.684;6.954;2023-04-08T01:08:58;4.10;90.00
6270;DHT22;3168;51.684;6.954;2023-04-08T01:11:23;4.10;91.60
6270;DHT22;3168;51.684;6.954;2023-04-08T01:13:48;4.20;93.10
6270;DHT22;3168;51.684;6.954;2023-04-08T01:16:14;4.20;93.90
6270;DHT22;3168;51.684;6.954;2023-04-08T01:18:40;4.30;94.60
6270;DHT22;3168;51.684;6.954;2023-04-08T01:21:06;4.30;96.10
6270;DHT22;3168;51.684;6.954;2023-04-08T01:23:42;4.30;96.00
6270;DHT22;3168;51.684;6.954;2023-04-08T01:26:02;4.30;96.50
6270;DHT22;3168;51.684;6.954;2023-04-08T01:28:29;4.30;97.30
6270;DHT22;3168;51.684;6.954;2023-04-08T01:30:55;4.30;98.20
6270;DHT22;3168;51.684;6.954;2023-04-08T01:33:20;4.20;98.30
6270;DHT22;3168;51.684;6.954;2023-04-08T01:35:46;4.30;99.30
6270;DHT22;3168;51.684;6.954;2023-04-08T01:38:13;4.30;99.90
6270;DHT22;3168;51.684;6.954;2023-04-08T01:40:38;4.40;99.90
6270;DHT22;3168;51.684;6.954;2023-04-08T01:43:06;4.40;99.90
6270;DHT22;3168;51.684;6.954;2023-04-08T01:45:31;4.30;99.90
6270;DHT22;3168;51.684;6.954;2023-04-08T01:47:57;4.40;99.90
6270;DHT22;3168;51.684;6.954;2023-04-08T01:50:23;4.30;99.90
6270;DHT22;3168;51.684;6.954;2023-04-08T01:52:48;4.20;99.90
6270;DHT22;3168;51.684;6.954;2023-04-08T01:55:15;4.30;99.90
6270;DHT22;3168;51.684;6.954;2023-04-08T01:57:40;4.10;99.90
6270;DHT22;3168;51.684;6.954;2023-04-08T02:00:08;4.10;99.90
6270;DHT22;3168;51.684;6.954;2023-04-08T02:02:34;3.90;99.90
6270;DHT22;3168;51.684;6.954;2023-04-08T02:04:59;3.80;99.90
6270;DHT22;3168;51.684;6.954;2023-04-08T02:07:25;3.60;99.70
6270;DHT22;3168;51.684;6.954;2023-04-08T02:09:51;3.40;99.80
6270;DHT22;3168;51.684;6.954;2023-04-08T02:12:16;3.60;99.90
6270;DHT22;3168;51.684;6.954;2023-04-08T02:14:42;3.70;99.90
6270;DHT22;3168;51.684;6.954;2023-04-08T02:17:10;3.70;99.90
6270;DHT22;3168;51.684;6.954;2023-04-08T02:19:43;3.80;99.90
6270;DHT22;3168;51.684;6.954;2023-04-08T02:22:08;3.70;99.90
6270;DHT22;3168;51.684;6.954;2023-04-08T02:24:32;3.70;99.90
6270;DHT22;3168;51.684;6.954;2023-04-08T02:26:58;3.60;99.90
6270;DHT22;3168;51.684;6.954;2023-04-08T02:29:24;3.60;99.90
6270;DHT22;3168;51.684;6.954;2023-04-08T02:31:49;3.60;99.90
6270;DHT22;3168;51.684;6.954;2023-04-08T02:34:15;3.50;99.90
6270;DHT22;3168;51.684;6.954;2023-04-08T02:36:41;3.40;99.90
6270;DHT22;3168;51.684;6.954;2023-04-08T02:39:07;3.40;99.90
6270;DHT22;3168;51.684;6.954;2023-04-08T02:41:33;3.40;99.90
6270;DHT22;3168;51.684;6.954;2023-04-08T02:43:59;3.60;99.90
6270;DHT22;3168;51.684;6.954;2023-04-08T02:46:24;3.50;99.90
6270;DHT22;3168;51.684;6.954;2023-04-08T02:48:50;3.50;99.90
6270;DHT22;3168;51.684;6.954;2023-04-08T02:51:16;3.30;99.90
6270;DHT22;3168;51.684;6.954;2023-04-08T02:53:42;3.40;99.90
6270;DHT22;3168;51.684;6.954;2023-04-08T02:56:09;3.40;99.90
6270;DHT22;3168;51.684;6.954;2023-04-08T02:58:35;3.30;99.90
6270;DHT22;3168;51.684;6.954;2023-04-08T03:01:00;3.20;99.90
6270;DHT22;3168;51.684;6.954;2023-04-08T03:03:26;3.30;99.90
6270;DHT22;3168;51.684;6.954;2023-04-08T03:05:52;3.30;99.90
6270;DHT22;3168;51.684;6.954;2023-04-08T03:08:25;3.10;99.90
6270;DHT22;3168;51.684;6.954;2023-04-08T03:10:51;3.10;99.90
6270;DHT22;3168;51.684;6.954;2023-04-08T03:13:17;3.10;99.90
6270;DHT22;3168;51.684;6.954;2023-04-08T03:15:43;3.00;99.90
6270;DHT22;3168;51.684;6.954;2023-04-08T03:18:09;3.00;99.90
6270;DHT22;3168;51.684;6.954;2023-04-08T03:20:35;2.90;99.90
6270;DHT22;3168;51.684;6.954;2023-04-08T03:23:02;2.80;99.90
6270;DHT22;3168;51.684;6.954;2023-04-08T03:25:29;2.80;99.90
6270;DHT22;3168;51.684;6.954;2023-04-08T03:27:54;2.80;99.90
6270;DHT22;3168;51.684;6.954;2023-04-08T03:30:20;2.70;99.90
6270;DHT22;3168;51.684;6.954;2023-04-08T03:32:46;2.70;99.90
6270;DHT22;3168;51.684;6.954;2023-04-08T03:35:12;2.60;99.90
6270;DHT22;3168;51.684;6.954;2023-04-08T03:37:38;2.60;99.90
6270;DHT22;3168;51.684;6.954;2023-04-08T03:40:04;2.50;99.90
6270;DHT22;3168;51.684;6.954;2023-04-08T03:42:30;2.50;99.90
6270;DHT22;3168;51.684;6.954;2023-04-08T03:44:56;2.40;99.90
6270;DHT22;3168;51.684;6.954;2023-04-08T03:47:22;2.30;99.90
6270;DHT22;3168;51.684;6.954;2023-04-08T03:49:48;2.30;99.90
6270;DHT22;3168;51.684;6.954;2023-04-08T03:52:13;2.20;99.90
6270;DHT22;3168;51.684;6.954;2023-04-08T03:54:39;2.30;99.90
6270;DHT22;3168;51.684;6.954;2023-04-08T03:57:05;2.40;99.90
6270;DHT22;3168;51.684;6.954;2023-04-08T03:59:31;2.40;99.90
6270;DHT22;3168;51.684;6.954;2023-04-08T04:01:57;2.40;99.90
6270;DHT22;3168;51.684;6.954;2023-04-08T04:04:23;2.30;99.90
6270;DHT22;3168;51.684;6.954;2023-04-08T04:06:48;2.20;99.90
6270;DHT22;3168;51.684;6.954;2023-04-08T04:09:14;2.10;99.60
6270;DHT22;3168;51.684;6.954;2023-04-08T04:11:40;2.10;99.10
6270;DHT22;3168;51.684;6.954;2023-04-08T04:14:06;2.00;98.50
6270;DHT22;3168;51.684;6.954;2023-04-08T04:16:32;1.80;96.70
6270;DHT22;3168;51.684;6.954;2023-04-08T04:18:57;1.70;96.00
6270;DHT22;3168;51.684;6.954;2023-04-08T04:21:23;1.50;96.00
6270;DHT22;3168;51.684;6.954;2023-04-08T04:23:49;1.60;96.10
6270;DHT22;3168;51.684;6.954;2023-04-08T04:26:15;1.70;96.80
6270;DHT22;3168;51.684;6.954;2023-04-08T04:28:40;1.70;97.00
6270;DHT22;3168;51.684;6.954;2023-04-08T04:31:06;1.60;95.40
6270;DHT22;3168;51.684;6.954;2023-04-08T04:33:32;1.50;95.10
6270;DHT22;3168;51.684;6.954;2023-04-08T04:35:58;1.50;94.80
6270;DHT22;3168;51.684;6.954;2023-04-08T04:38:24;1.50;95.50
6270;DHT22;3168;51.684;6.954;2023-04-08T04:40:49;1.60;95.60
6270;DHT22;3168;51.684;6.954;2023-04-08T04:43:15;1.60;95.20
6270;DHT22;3168;51.684;6.954;2023-04-08T04:45:41;1.60;94.80
6270;DHT22;3168;51.684;6.954;2023-04-08T04:48:07;1.60;94.40
6270;DHT22;3168;51.684;6.954;2023-04-08T04:50:33;1.50;93.50
6270;DHT22;3168;51.684;6.954;2023-04-08T04:52:59;1.50;93.60
6270;DHT22;3168;51.684;6.954;2023-04-08T04:55:24;1.50;92.50
6270;DHT22;3168;51.684;6.954;2023-04-08T04:57:50;1.40;91.70
6270;DHT22;3168;51.684;6.954;2023-04-08T05:00:16;1.50;92.40
6270;DHT22;3168;51.684;6.954;2023-04-08T05:02:42;1.50;92.50
6270;DHT22;3168;51.684;6.954;2023-04-08T05:05:08;1.50;91.70
6270;DHT22;3168;51.684;6.954;2023-04-08T05:07:41;1.50;91.60
6270;DHT22;3168;51.684;6.954;2023-04-08T05:10:09;1.40;89.50
6270;DHT22;3168;51.684;6.954;2023-04-08T05:12:35;1.40;89.30
6270;DHT22;3168;51.684;6.954;2023-04-08T05:15:01;1.50;90.30
6270;DHT22;3168;51.684;6.954;2023-04-08T05:17:26;1.60;90.50
6270;DHT22;3168;51.684;6.954;2023-04-08T05:19:52;1.60;90.50
6270;DHT22;3168;51.684;6.954;2023-04-08T05:22:19;1.60;88.90
6270;DHT22;3168;51.684;6.954;2023-04-08T05:24:44;1.60;88.80
6270;DHT22;3168;51.684;6.954;2023-04-08T05:27:10;1.70;89.70
6270;DHT22;3168;51.684;6.954;2023-04-08T05:29:36;1.70;88.10
6270;DHT22;3168;51.684;6.954;2023-04-08T05:32:02;1.80;89.50
6270;DHT22;3168;51.684;6.954;2023-04-08T05:34:30;1.90;89.90
6270;DHT22;3168;51.684;6.954;2023-04-08T05:36:54;2.00;89.40
6270;DHT22;3168;51.684;6.954;2023-04-08T05:39:19;2.00;89.50
6270;DHT22;3168;51.684;6.954;2023-04-08T05:41:45;2.20;89.90
6270;DHT22;3168;51.684;6.954;2023-04-08T05:44:12;2.20;89.40
6270;DHT22;3168;51.684;6.954;2023-04-08T05:46:37;2.30;86.00
6270;DHT22;3168;51.684;6.954;2023-04-08T05:49:03;2.30;85.80
6270;DHT22;3168;51.684;6.954;2023-04-08T05:51:29;2.40;85.80
6270;DHT22;3168;51.684;6.954;2023-04-08T05:53:54;2.50;83.70
6270;DHT22;3168;51.684;6.954;2023-04-08T05:56:20;2.70;86.50
6270;DHT22;3168;51.684;6.954;2023-04-08T05:58:46;2.70;82.20
6270;DHT22;3168;51.684;6.954;2023-04-08T06:01:12;2.60;78.00
6270;DHT22;3168;51.684;6.954;2023-04-08T06:03:38;2.70;74.20
6270;DHT22;3168;51.684;6.954;2023-04-08T06:06:08;2.70;73.30
6270;DHT22;3168;51.684;6.954;2023-04-08T06:08:33;2.60;68.90
6270;DHT22;3168;51.684;6.954;2023-04-08T06:10:59;2.70;67.70
6270;DHT22;3168;51.684;6.954;2023-04-08T06:13:26;2.80;65.10
6270;DHT22;3168;51.684;6.954;2023-04-08T06:15:52;2.80;65.10
6270;DHT22;3168;51.684;6.954;2023-04-08T06:18:18;2.70;63.30
6270;DHT22;3168;51.684;6.954;2023-04-08T06:20:43;2.90;64.90
6270;DHT22;3168;51.684;6.954;2023-04-08T06:23:09;3.00;64.80
6270;DHT22;3168;51.684;6.954;2023-04-08T06:25:35;3.20;65.10
6270;DHT22;3168;51.684;6.954;2023-04-08T06:28:01;3.30;62.60
6270;DHT22;3168;51.684;6.954;2023-04-08T06:30:27;3.30;62.50
6270;DHT22;3168;51.684;6.954;2023-04-08T06:32:53;3.40;59.80
6270;DHT22;3168;51.684;6.954;2023-04-08T06:35:18;3.50;56.80
6270;DHT22;3168;51.684;6.954;2023-04-08T06:37:44;3.60;53.40
6270;DHT22;3168;51.684;6.954;2023-04-08T06:40:10;3.70;51.70
6270;DHT22;3168;51.684;6.954;2023-04-08T06:42:36;3.80;45.80
6270;DHT22;3168;51.684;6.954;2023-04-08T06:45:03;3.80;43.60
6270;DHT22;3168;51.684;6.954;2023-04-08T06:47:29;3.80;42.80
6270;DHT22;3168;51.684;6.954;2023-04-08T06:49:56;4.00;42.60
6270;DHT22;3168;51.684;6.954;2023-04-08T06:52:22;4.10;39.60
6270;DHT22;3168;51.684;6.954;2023-04-08T06:54:48;4.10;39.40
6270;DHT22;3168;51.684;6.954;2023-04-08T06:57:14;4.20;36.10
6270;DHT22;3168;51.684;6.954;2023-04-08T06:59:40;4.30;35.30
6270;DHT22;3168;51.684;6.954;2023-04-08T07:02:06;4.40;29.80
6270;DHT22;3168;51.684;6.954;2023-04-08T07:04:31;4.40;27.50
6270;DHT22;3168;51.684;6.954;2023-04-08T07:06:57;4.40;22.20
6270;DHT22;3168;51.684;6.954;2023-04-08T07:09:23;4.50;16.70
6270;DHT22;3168;51.684;6.954;2023-04-08T07:11:50;4.80;9.30
6270;DHT22;3168;51.684;6.954;2023-04-08T07:14:15;4.70;9.20
6270;DHT22;3168;51.684;6.954;2023-04-08T07:16:41;4.90;1.80
6270;DHT22;3168;51.684;6.954;2023-04-08T07:19:07;4.90;1.00
6270;DHT22;3168;51.684;6.954;2023-04-08T07:21:34;4.90;1.00
6270;DHT22;3168;51.684;6.954;2023-04-08T07:24:00;5.00;1.00
6270;DHT22;3168;51.684;6.954;2023-04-08T07:26:26;5.00;1.00
6270;DHT22;3168;51.684;6.954;2023-04-08T07:28:52;5.20;1.00
6270;DHT22;3168;51.684;6.954;2023-04-08T07:31:18;5.30;1.00
6270;DHT22;3168;51.684;6.954;2023-04-08T07:33:44;5.50;1.00
6270;DHT22;3168;51.684;6.954;2023-04-08T07:36:10;5.30;1.00
6270;DHT22;3168;51.684;6.954;2023-04-08T07:38:35;5.50;1.00
6270;DHT22;3168;51.684;6.954;2023-04-08T07:41:01;5.50;1.00
6270;DHT22;3168;51.684;6.954;2023-04-08T07:43:27;5.70;1.00
6270;DHT22;3168;51.684;6.954;2023-04-08T07:45:53;5.90;1.00
6270;DHT22;3168;51.684;6.954;2023-04-08T07:48:18;6.00;1.00
6270;DHT22;3168;51.684;6.954;2023-04-08T07:50:44;6.20;1.00
6270;DHT22;3168;51.684;6.954;2023-04-08T07:53:10;6.20;1.00
6270;DHT22;3168;51.684;6.954;2023-04-08T07:55:36;6.40;1.00
6270;DHT22;3168;51.684;6.954;2023-04-08T07:58:02;6.60;1.00
6270;DHT22;3168;51.684;6.954;2023-04-08T08:00:28;6.90;1.00
6270;DHT22;3168;51.684;6.954;2023-04-08T08:02:53;6.80;1.00
6270;DHT22;3168;51.684;6.954;2023-04-08T08:05:20;7.00;1.00
6270;DHT22;3168;51.684;6.954;2023-04-08T08:07:46;7.00;1.00
6270;DHT22;3168;51.684;6.954;2023-04-08T08:10:12;7.20;1.00
6270;DHT22;3168;51.684;6.954;2023-04-08T08:12:37;7.30;1.00
6270;DHT22;3168;51.684;6.954;2023-04-08T08:15:04;7.40;1.00
6270;DHT22;3168;51.684;6.954;2023-04-08T08:17:30;7.40;1.00
6270;DHT22;3168;51.684;6.954;2023-04-08T08:19:55;7.40;1.00
6270;DHT22;3168;51.684;6.954;2023-04-08T08:22:21;7.60;1.00
6270;DHT22;3168;51.684;6.954;2023-04-08T08:24:47;7.50;1.00
6270;DHT22;3168;51.684;6.954;2023-04-08T08:27:13;7.80;1.00
6270;DHT22;3168;51.684;6.954;2023-04-08T08:29:39;7.70;1.00
6270;DHT22;3168;51.684;6.954;2023-04-08T08:32:05;7.80;1.00
6270;DHT22;3168;51.684;6.954;2023-04-08T08:34:30;7.70;1.00
6270;DHT22;3168;51.684;6.954;2023-04-08T08:36:56;7.60;1.00
6270;DHT22;3168;51.684;6.954;2023-04-08T08:39:22;7.80;1.00
6270;DHT22;3168;51.684;6.954;2023-04-08T08:41:48;8.00;1.00
6270;DHT22;3168;51.684;6.954;2023-04-08T08:44:14;8.20;1.00
6270;DHT22;3168;51.684;6.954;2023-04-08T08:46:43;8.10;1.00
6270;DHT22;3168;51.684;6.954;2023-04-08T08:49:08;8.20;1.00
6270;DHT22;3168;51.684;6.954;2023-04-08T08:51:34;8.20;1.00
6270;DHT22;3168;51.684;6.954;2023-04-08T08:54:01;8.60;1.00
6270;DHT22;3168;51.684;6.954;2023-04-08T08:56:28;8.50;1.00
6270;DHT22;3168;51.684;6.954;2023-04-08T08:58:53;8.40;1.00
6270;DHT22;3168;51.684;6.954;2023-04-08T09:01:29;8.50;1.00
6270;DHT22;3168;51.684;6.954;2023-04-08T09:04:07;8.50;1.00
6270;DHT22;3168;51.684;6.954;2023-04-08T09:06:32;8.80;1.00
6270;DHT22;3168;51.684;6.954;2023-04-08T09:08:58;8.80;1.00
6270;DHT22;3168;51.684;6.954;2023-04-08T09:11:24;8.70;1.00
6270;DHT22;3168;51.684;6.954;2023-04-08T09:13:49;8.80;1.00
6270;DHT22;3168;51.684;6.954;2023-04-08T09:16:16;9.00;1.00
6270;DHT22;3168;51.684;6.954;2023-04-08T09:18:41;9.20;1.00
6270;DHT22;3168;51.684;6.954;2023-04-08T09:21:07;9.30;1.00
6270;DHT22;3168;51.684;6.954;2023-04-08T09:23:41;9.20;1.00
6270;DHT22;3168;51.684;6.954;2023-04-08T09:26:06;9.30;1.00
6270;DHT22;3168;51.684;6.954;2023-04-08T09:28:31;9.30;1.00
6270;DHT22;3168;51.684;6.954;2023-04-08T09:30:58;9.60;1.00
6270;DHT22;3168;51.684;6.954;2023-04-08T09:33:29;9.50;1.00
6270;DHT22;3168;51.684;6.954;2023-04-08T09:35:54;9.50;1.00
6270;DHT22;3168;51.684;6.954;2023-04-08T09:38:21;9.40;1.00
6270;DHT22;3168;51.684;6.954;2023-04-08T09:40:47;9.40;1.00
6270;DHT22;3168;51.684;6.954;2023-04-08T09:43:13;9.20;1.00
6270;DHT22;3168;51.684;6.954;2023-04-08T09:45:38;9.60;1.00
6270;DHT22;3168;51.684;6.954;2023-04-08T09:48:11;9.40;1.00
6270;DHT22;3168;51.684;6.954;2023-04-08T09:50:37;9.30;1.00
6270;DHT22;3168;51.684;6.954;2023-04-08T09:53:06;9.50;1.00
6270;DHT22;3168;51.684;6.954;2023-04-08T09:55:27;9.40;1.00
6270;DHT22;3168;51.684;6.954;2023-04-08T09:57:57;9.70;1.00
6270;DHT22;3168;51.684;6.954;2023-04-08T10:00:21;9.70;1.00
6270;DHT22;3168;51.684;6.954;2023-04-08T10:03:10;9.70;1.00
6270;DHT22;3168;51.684;6.954;2023-04-08T10:05:36;9.40;1.00
6270;DHT22;3168;51.684;6.954;2023-04-08T10:08:02;9.40;1.00
6270;DHT22;3168;51.684;6.954;2023-04-08T10:10:27;9.40;1.00
6270;DHT22;3168;51.684;6.954;2023-04-08T10:12:53;9.30;1.00
6270;DHT22;3168;51.684;6.954;2023-04-08T10:15:26;9.40;1.00
6270;DHT22;3168;51.684;6.954;2023-04-08T10:17:52;9.50;1.00
6270;DHT22;3168;51.684;6.954;2023-04-08T10:22:56;9.60;1.00
6270;DHT22;3168;51.684;6.954;2023-04-08T10:25:28;10.10;1.00
6270;DHT22;3168;51.684;6.954;2023-04-08T10:27:53;10.00;1.00
6270;DHT22;3168;51.684;6.954;2023-04-08T10:30:41;10.10;1.00
6270;DHT22;3168;51.684;6.954;2023-04-08T10:33:12;10.10;1.00
6270;DHT22;3168;51.684;6.954;2023-04-08T10:35:39;10.00;1.00
6270;DHT22;3168;51.684;6.954;2023-04-08T10:38:03;10.10;1.00
6270;DHT22;3168;51.684;6.954;2023-04-08T10:40:34;10.20;1.00
6270;DHT22;3168;51.684;6.954;2023-04-08T10:42:56;10.00;1.00
6270;DHT22;3168;51.684;6.954;2023-04-08T10:45:21;9.80;1.00
6270;DHT22;3168;51.684;6.954;2023-04-08T10:47:47;9.80;1.00
6270;DHT22;3168;51.684;6.954;2023-04-08T10:50:14;10.10;1.00
6270;DHT22;3168;51.684;6.954;2023-04-08T10:52:55;10.00;1.00
6270;DHT22;3168;51.684;6.954;2023-04-08T10:55:23;9.90;1.00
6270;DHT22;3168;51.684;6.954;2023-04-08T10:57:49;10.20;1.00
6270;DHT22;3168;51.684;6.954;2023-04-08T11:00:16;10.10;1.00
6270;DHT22;3168;51.684;6.954;2023-04-08T11:02:42;9.80;1.00
6270;DHT22;3168;51.684;6.954;2023-04-08T11:05:09;9.60;1.00
6270;DHT22;3168;51.684;6.954;2023-04-08T11:07:40;9.90;1.00
6270;DHT22;3168;51.684;6.954;2023-04-08T11:10:06;10.20;1.00
6270;DHT22;3168;51.684;6.954;2023-04-08T11:12:33;10.60;1.00
6270;DHT22;3168;51.684;6.954;2023-04-08T11:14:58;10.60;1.00
6270;DHT22;3168;51.684;6.954;2023-04-08T11:17:24;10.70;1.00
6270;DHT22;3168;51.684;6.954;2023-04-08T11:19:51;10.60;1.00
6270;DHT22;3168;51.684;6.954;2023-04-08T11:22:17;10.60;1.00
6270;DHT22;3168;51.684;6.954;2023-04-08T11:24:43;11.10;1.00
6270;DHT22;3168;51.684;6.954;2023-04-08T11:27:08;11.00;1.00
6270;DHT22;3168;51.684;6.954;2023-04-08T11:29:34;11.40;1.00
6270;DHT22;3168;51.684;6.954;2023-04-08T11:32:00;11.50;1.00
6270;DHT22;3168;51.684;6.954;2023-04-08T11:34:26;11.80;1.00
6270;DHT22;3168;51.684;6.954;2023-04-08T11:36:52;11.60;1.00
6270;DHT22;3168;51.684;6.954;2023-04-08T11:39:21;11.50;1.00
6270;DHT22;3168;51.684;6.954;2023-04-08T11:41:44;11.40;1.00
6270;DHT22;3168;51.684;6.954;2023-04-08T11:44:09;11.60;1.00
6270;DHT22;3168;51.684;6.954;2023-04-08T11:46:35;11.50;1.00
6270;DHT22;3168;51.684;6.954;2023-04-08T11:49:04;11.90;1.00
6270;DHT22;3168;51.684;6.954;2023-04-08T11:51:29;12.20;1.00
6270;DHT22;3168;51.684;6.954;2023-04-08T11:53:55;12.00;1.00
6270;DHT22;3168;51.684;6.954;2023-04-08T11:56:21;12.00;1.00
6270;DHT22;3168;51.684;6.954;2023-04-08T11:58:47;12.20;1.00
6270;DHT22;3168;51.684;6.954;2023-04-08T12:01:13;11.80;1.00
6270;DHT22;3168;51.684;6.954;2023-04-08T12:03:38;11.50;1.00
6270;DHT22;3168;51.684;6.954;2023-04-08T12:06:05;11.60;1.00
6270;DHT22;3168;51.684;6.954;2023-04-08T12:08:31;11.60;1.00
6270;DHT22;3168;51.684;6.954;2023-04-08T12:10:56;11.80;1.00
6270;DHT22;3168;51.684;6.954;2023-04-08T12:13:22;11.80;1.00
6270;DHT22;3168;51.684;6.954;2023-04-08T12:15:48;11.80;1.00
6270;DHT22;3168;51.684;6.954;2023-04-08T12:18:14;11.90;1.00
6270;DHT22;3168;51.684;6.954;2023-04-08T12:20:40;12.00;1.00
6270;DHT22;3168;51.684;6.954;2023-04-08T12:23:06;11.90;1.00
6270;DHT22;3168;51.684;6.954;2023-04-08T12:25:32;11.80;1.00
6270;DHT22;3168;51.684;6.954;2023-04-08T12:27:57;11.70;1.00
6270;DHT22;3168;51.684;6.954;2023-04-08T12:30:23;11.20;1.00
6270;DHT22;3168;51.684;6.954;2023-04-08T12:32:49;11.30;1.00
6270;DHT22;3168;51.684;6.954;2023-04-08T12:35:15;11.40;1.00
6270;DHT22;3168;51.684;6.954;2023-04-08T12:37:41;11.40;1.00
6270;DHT22;3168;51.684;6.954;2023-04-08T12:40:07;11.60;1.00
6270;DHT22;3168;51.684;6.954;2023-04-08T12:42:33;11.80;1.00
6270;DHT22;3168;51.684;6.954;2023-04-08T12:44:59;11.70;1.00
6270;DHT22;3168;51.684;6.954;2023-04-08T12:47:25;11.50;1.00
6270;DHT22;3168;51.684;6.954;2023-04-08T12:49:50;11.40;1.00
6270;DHT22;3168;51.684;6.954;2023-04-08T12:52:16;11.30;1.00
6270;DHT22;3168;51.684;6.954;2023-04-08T12:54:42;11.20;1.00
6270;DHT22;3168;51.684;6.954;2023-04-08T12:57:08;11.20;1.00
6270;DHT22;3168;51.684;6.954;2023-04-08T12:59:34;11.40;1.00
6270;DHT22;3168;51.684;6.954;2023-04-08T13:02:00;11.40;1.00
6270;DHT22;3168;51.684;6.954;2023-04-08T13:04:26;11.40;1.00
6270;DHT22;3168;51.684;6.954;2023-04-08T13:06:52;11.20;1.00
6270;DHT22;3168;51.684;6.954;2023-04-08T13:09:18;11.10;1.00
6270;DHT22;3168;51.684;6.954;2023-04-08T13:11:44;11.00;1.00
6270;DHT22;3168;51.684;6.954;2023-04-08T13:14:10;11.10;1.00
6270;DHT22;3168;51.684;6.954;2023-04-08T13:16:36;11.30;1.00
6270;DHT22;3168;51.684;6.954;2023-04-08T13:19:01;11.60;1.00
6270;DHT22;3168;51.684;6.954;2023-04-08T13:21:28;12.00;1.00
6270;DHT22;3168;51.684;6.954;2023-04-08T13:23:54;11.90;1.00
6270;DHT22;3168;51.684;6.954;2023-04-08T13:26:20;12.10;1.00
6270;DHT22;3168;51.684;6.954;2023-04-08T13:28:46;12.20;1.00
6270;DHT22;3168;51.684;6.954;2023-04-08T13:31:12;12.10;1.00
6270;DHT22;3168;51.684;6.954;2023-04-08T13:33:38;11.90;1.00
6270;DHT22;3168;51.684;6.954;2023-04-08T13:36:04;11.80;1.00
6270;DHT22;3168;51.684;6.954;2023-04-08T13:38:30;11.90;1.00
6270;DHT22;3168;51.684;6.954;2023-04-08T13:40:56;11.90;1.00
6270;DHT22;3168;51.684;6.954;2023-04-08T13:43:21;11.30;1.00
6270;DHT22;3168;51.684;6.954;2023-04-08T13:45:47;11.20;1.00
6270;DHT22;3168;51.684;6.954;2023-04-08T13:48:14;11.80;1.00
6270;DHT22;3168;51.684;6.954;2023-04-08T13:50:40;11.70;1.00
6270;DHT22;3168;51.684;6.954;2023-04-08T13:53:05;11.90;1.00
6270;DHT22;3168;51.684;6.954;2023-04-08T13:55:31;11.60;1.00
6270;DHT22;3168;51.684;6.954;2023-04-08T13:57:57;11.60;1.00
6270;DHT22;3168;51.684;6.954;2023-04-08T14:00:23;11.40;1.00
6270;DHT22;3168;51.684;6.954;2023-04-08T14:02:49;11.30;1.00
6270;DHT22;3168;51.684;6.954;2023-04-08T14:05:15;11.50;1.00
6270;DHT22;3168;51.684;6.954;2023-04-08T14:07:40;11.60;1.00
6270;DHT22;3168;51.684;6.954;2023-04-08T14:10:07;11.80;1.00
6270;DHT22;3168;51.684;6.954;2023-04-08T14:12:33;11.80;1.00
6270;DHT22;3168;51.684;6.954;2023-04-08T14:14:59;12.00;1.00
6270;DHT22;3168;51.684;6.954;2023-04-08T14:17:25;11.60;1.00
6270;DHT22;3168;51.684;6.954;2023-04-08T14:19:50;11.70;1.00
6270;DHT22;3168;51.684;6.954;2023-04-08T14:22:16;11.60;1.00
6270;DHT22;3168;51.684;6.954;2023-04-08T14:24:42;11.90;1.00
6270;DHT22;3168;51.684;6.954;2023-04-08T14:27:08;12.10;1.00
6270;DHT22;3168;51.684;6.954;2023-04-08T14:29:34;12.20;1.00
6270;DHT22;3168;51.684;6.954;2023-04-08T14:32:00;12.20;1.00
6270;DHT22;3168;51.684;6.954;2023-04-08T14:34:25;12.10;1.00
6270;DHT22;3168;51.684;6.954;2023-04-08T14:36:51;12.30;1.00
6270;DHT22;3168;51.684;6.954;2023-04-08T14:39:17;12.40;1.00
6270;DHT22;3168;51.684;6.954;2023-04-08T14:41:43;12.60;1.00
6270;DHT22;3168;51.684;6.954;2023-04-08T14:44:09;12.70;1.00
6270;DHT22;3168;51.684;6.954;2023-04-08T14:46:34;12.30;1.00
6270;DHT22;3168;51.684;6.954;2023-04-08T14:49:00;12.10;1.00
6270;DHT22;3168;51.684;6.954;2023-04-08T14:51:27;12.10;1.00
6270;DHT22;3168;51.684;6.954;2023-04-08T14:53:53;12.10;1.00
6270;DHT22;3168;51.684;6.954;2023-04-08T14:56:19;12.20;1.00
6270;DHT22;3168;51.684;6.954;2023-04-08T14:58:44;12.20;1.00
6270;DHT22;3168;51.684;6.954;2023-04-08T15:01:11;12.20;1.00
6270;DHT22;3168;51.684;6.954;2023-04-08T15:03:36;12.00;1.00
6270;DHT22;3168;51.684;6.954;2023-04-08T15:06:02;12.00;1.00
6270;DHT22;3168;51.684;6.954;2023-04-08T15:08:28;12.00;1.00
6270;DHT22;3168;51.684;6.954;2023-04-08T15:10:54;12.20;1.00
6270;DHT22;3168;51.684;6.954;2023-04-08T15:13:20;12.10;1.00
6270;DHT22;3168;51.684;6.954;2023-04-08T15:15:46;12.20;1.00
6270;DHT22;3168;51.684;6.954;2023-04-08T15:18:12;12.30;1.00
6270;DHT22;3168;51.684;6.954;2023-04-08T15:20:38;12.30;1.00
6270;DHT22;3168;51.684;6.954;2023-04-08T15:23:03;12.20;1.00
6270;DHT22;3168;51.684;6.954;2023-04-08T15:25:29;12.20;1.00
6270;DHT22;3168;51.684;6.954;2023-04-08T15:27:56;11.90;1.00
6270;DHT22;3168;51.684;6.954;2023-04-08T15:30:22;11.90;1.00
6270;DHT22;3168;51.684;6.954;2023-04-08T15:32:48;11.90;1.00
6270;DHT22;3168;51.684;6.954;2023-04-08T15:35:14;11.90;1.00
6270;DHT22;3168;51.684;6.954;2023-04-08T15:37:40;11.80;1.00
6270;DHT22;3168;51.684;6.954;2023-04-08T15:40:07;11.80;1.00
6270;DHT22;3168;51.684;6.954;2023-04-08T15:42:33;11.70;1.00
6270;DHT22;3168;51.684;6.954;2023-04-08T15:44:59;11.70;1.00
6270;DHT22;3168;51.684;6.954;2023-04-08T15:47:24;11.80;1.00
6270;DHT22;3168;51.684;6.954;2023-04-08T15:49:51;11.80;1.00
6270;DHT22;3168;51.684;6.954;2023-04-08T15:52:16;11.70;1.00
6270;DHT22;3168;51.684;6.954;2023-04-08T15:54:42;11.70;1.00
6270;DHT22;3168;51.684;6.954;2023-04-08T15:57:08;11.70;1.00
6270;DHT22;3168;51.684;6.954;2023-04-08T15:59:34;11.70;1.00
6270;DHT22;3168;51.684;6.954;2023-04-08T16:02:00;11.80;1.00
6270;DHT22;3168;51.684;6.954;2023-04-08T16:04:26;11.80;1.00
6270;DHT22;3168;51.684;6.954;2023-04-08T16:06:52;11.70;1.00
6270;DHT22;3168;51.684;6.954;2023-04-08T16:09:18;11.80;1.00
6270;DHT22;3168;51.684;6.954;2023-04-08T16:11:44;11.80;1.00
6270;DHT22;3168;51.684;6.954;2023-04-08T16:14:09;11.80;1.00
6270;DHT22;3168;51.684;6.954;2023-04-08T16:16:35;11.80;1.00
6270;DHT22;3168;51.684;6.954;2023-04-08T16:19:01;11.80;1.00